Aérodrome :
LOGIN :

S'inscrire | Disclaimer

   EN    FR    IT 

 










Légende :    VFR   VFR Marginal   IFR   IFR Intensif   IFR Très Intensif
Visi : 
Plafond : 
>= 8 km
>= 3000ft
5 à 8 km
1000 à 3000 ft
1500m à 5 km
500 à 1000 ft
800 à 1500m
200 à 500 ft
< 800m
< 200 ft
Symboles :   Orages  Brouillard  Fortes neiges  Fortes précipitations  Vent > 20 kt
SIGMETs :   Divers  Orages  Givrage  Turbulence  Onde Orograph.  Cendres Volcan.






- Altitude de l'aérodrome : 41 ft


LIRE - Pratica di Mare Air Base Pomezia

DERNIER METAR :
  • 150755Z 13011KT 9999 FEW040 SCT060 21/18 Q1017 RMK BKN VIS MIN 9999 WIND THR13 14011KT WIND THR31 /////KT BLU

METARs EXPIRÉS :
  • 150655Z 11009KT 9999 FEW015 SCT040 20/18 Q1017 RMK SCT VIS MIN 9999 WIND THR13 13009KT WIND THR31 /////KT BLU
  • 150555Z 10007KT 9999 FEW040 19/17 Q1017 RMK FEW VIS MIN 9999 WIND THR13 13006KT WIND THR31 /////KT BLU

TAF TAF LIRE
Valide du 15 à 06h jusqu'au 15 à 15h UTC


150500Z 1506/1515 12008KT 9999 FEW040
BECMG 1507/1509 16016KT
TEMPO 1512/1515 RA SCT030 SCT050



MET'MAP, la Météo Aéronautique d'un coup d'oeil ! - Copyright ORBIFLY Décembre 2007 - Disclaimer

ORBIFLY MET'MAP TEAM :

Programmation & Développement : Alexandra Zaïnal
Conception & Développement : Baudouin d'Aumeries
Co-Programmation & Développement : Marc-Olivier Méhu
Soutien technique & logistique : Manuel Goepfert

Contact : metmap@orbifly.com




SOURCES & CREDITS :

   NOAA